createdAt,value
2023-01-06T00:01:06.575Z,-23481.81
2023-01-06T00:03:11.293Z,-23480.53
2023-01-06T00:05:13.965Z,-23481.81
2023-01-06T00:07:16.597Z,-23481.81
2023-01-06T00:09:19.280Z,-23483.06
2023-01-06T00:11:22.863Z,-23483.38
2023-01-06T00:13:25.511Z,-23483.38
2023-01-06T00:15:28.210Z,-23485.75
2023-01-06T00:17:31.853Z,-23485.28
2023-01-06T00:19:35.841Z,-23484.19
2023-01-06T00:21:38.539Z,-23482.75
2023-01-06T00:23:41.657Z,-23482.75
2023-01-06T00:25:50.407Z,-23485.75
2023-01-06T00:27:53.048Z,-23485.28
2023-01-06T00:29:55.716Z,-23480.53
2023-01-06T00:32:00.051Z,-23481.16
2023-01-06T00:34:02.723Z,-23481.66
2023-01-06T00:36:09.409Z,-23483.06
2023-01-06T00:38:12.259Z,-23479.91
2023-01-06T00:40:14.986Z,-23483.53
2023-01-06T00:42:16.668Z,-23482.75
2023-01-06T00:44:19.538Z,-23481.16
2023-01-06T00:46:22.724Z,-23478.94
2023-01-06T00:48:25.444Z,-23478.16
2023-01-06T00:50:28.277Z,-23481.31
2023-01-06T00:52:32.260Z,-23481.97
2023-01-06T00:54:36.616Z,-23481.81
2023-01-06T00:56:40.216Z,-23480.53
2023-01-06T00:58:42.889Z,-23479.59
2023-01-06T01:00:45.552Z,-23480.69
2023-01-06T01:02:48.370Z,-23478.31
2023-01-06T01:04:51.019Z,-23477.84
2023-01-06T01:06:54.727Z,-23475.47
2023-01-06T01:09:00.714Z,-23474.03
2023-01-06T01:11:04.470Z,-23472.91
2023-01-06T01:13:07.126Z,-23472.44
2023-01-06T01:15:10.607Z,-23468.81
2023-01-06T01:17:14.881Z,-23470.88
2023-01-06T01:19:18.151Z,-23469.75
2023-01-06T01:21:20.800Z,-23470.22
2023-01-06T01:23:23.471Z,-23467.38
2023-01-06T01:25:27.608Z,-23467.53
2023-01-06T01:27:30.356Z,-23462.47
2023-01-06T01:29:33.478Z,-23463.56
2023-01-06T01:31:36.125Z,-23460.72
2023-01-06T01:33:38.959Z,-23459.59
2023-01-06T01:35:41.559Z,-23461.50
2023-01-06T01:37:44.225Z,-23460.88
2023-01-06T01:39:47.202Z,-23458.66
2023-01-06T01:41:51.306Z,-23457.53
2023-01-06T01:43:56.013Z,-23458.81
2023-01-06T01:45:58.716Z,-23458.81
2023-01-06T01:48:05.918Z,-23459.91
2023-01-06T01:50:21.906Z,-23456.75
2023-01-06T01:52:25.221Z,-23458.03
2023-01-06T01:54:30.798Z,-23456.44
2023-01-06T01:56:37.125Z,-23454.53
2023-01-06T01:58:45.917Z,-23453.91
2023-01-06T02:00:48.656Z,-23454.53
2023-01-06T02:02:51.567Z,-23458.50
2023-01-06T02:04:56.123Z,-23457.22
2023-01-06T02:06:59.055Z,-23457.38
2023-01-06T02:09:07.867Z,-23459.59
2023-01-06T02:11:11.404Z,-23462.13
2023-01-06T02:13:14.060Z,-23465.31
2023-01-06T02:15:25.688Z,-23468.16
2023-01-06T02:17:54.008Z,-23462.47
2023-01-06T02:20:38.549Z,-23466.25
2023-01-06T02:23:06.758Z,-23465.00
2023-01-06T02:25:30.778Z,-23463.72
2023-01-06T02:28:17.784Z,-23465.78
2023-01-06T02:30:50.967Z,-23464.69
2023-01-06T02:33:07.117Z,-23465.78
2023-01-06T02:35:24.313Z,-23467.84
2023-01-06T02:37:40.139Z,-23464.69
2023-01-06T02:39:56.744Z,-23465.31
2023-01-06T02:42:12.059Z,-23465.94
2023-01-06T02:44:22.399Z,-23462.31
2023-01-06T02:46:33.838Z,-23462.31
2023-01-06T02:48:48.298Z,-23464.19
2023-01-06T02:50:59.797Z,-23465.63
2023-01-06T02:53:11.485Z,-23465.63
2023-01-06T02:55:18.838Z,-23466.09
2023-01-06T02:57:27.216Z,-23467.22
2023-01-06T02:59:35.560Z,-23467.84
2023-01-06T03:01:42.248Z,-23470.06
2023-01-06T03:03:48.930Z,-23466.56
2023-01-06T03:05:53.712Z,-23466.56
2023-01-06T03:07:59.134Z,-23468.50
2023-01-06T03:10:04.610Z,-23469.28
2023-01-06T03:12:15.062Z,-23469.13
2023-01-06T03:14:24.688Z,-23469.13
2023-01-06T03:16:27.858Z,-23470.53
2023-01-06T03:18:31.099Z,-23470.06
2023-01-06T03:20:35.456Z,-23471.03
2023-01-06T03:22:38.847Z,-23470.06
2023-01-06T03:24:43.458Z,-23469.28
2023-01-06T03:26:49.249Z,-23468.16
2023-01-06T03:28:51.849Z,-23468.97
2023-01-06T03:31:15.155Z,-23471.97
2023-01-06T03:33:24.076Z,-23471.34
2023-01-06T03:35:41.631Z,-23470.38
2023-01-06T03:37:53.280Z,-23469.28
2023-01-06T03:40:02.390Z,-23471.03
2023-01-06T03:42:36.758Z,-23464.69
2023-01-06T03:44:50.494Z,-23459.28
2023-01-06T03:47:01.003Z,-23456.59
2023-01-06T03:49:08.274Z,-23455.47
2023-01-06T03:51:23.415Z,-23452.31
2023-01-06T03:53:30.465Z,-23448.81
2023-01-06T03:55:37.403Z,-23449.13
2023-01-06T03:57:44.830Z,-23451.66
2023-01-06T03:59:51.561Z,-23454.84
2023-01-06T04:01:54.030Z,-23451.34
2023-01-06T04:03:57.388Z,-23452.31
2023-01-06T04:06:00.126Z,-23452.00
2023-01-06T04:08:04.163Z,-23451.03
2023-01-06T04:10:07.896Z,-23451.03
2023-01-06T04:12:27.932Z,-23449.78
2023-01-06T04:14:30.576Z,-23446.44
2023-01-06T04:16:33.261Z,-23446.13
2023-01-06T04:18:35.876Z,-23446.28
2023-01-06T04:20:38.608Z,-23445.00
2023-01-06T04:22:41.549Z,-23443.75
2023-01-06T04:24:45.547Z,-23443.25
2023-01-06T04:26:48.184Z,-23443.09
2023-01-06T04:28:50.744Z,-23440.09
2023-01-06T04:30:56.399Z,-23441.84
2023-01-06T04:32:58.977Z,-23442.00
2023-01-06T04:35:01.637Z,-23440.72
2023-01-06T04:37:04.926Z,-23438.34
2023-01-06T04:39:07.594Z,-23440.88
2023-01-06T04:41:11.553Z,-23439.59
2023-01-06T04:43:16.216Z,-23440.09
2023-01-06T04:45:18.944Z,-23440.25
2023-01-06T04:47:21.522Z,-23440.56
2023-01-06T04:49:24.209Z,-23439.94
2023-01-06T04:51:26.875Z,-23439.59
2023-01-06T04:53:29.491Z,-23439.94
2023-01-06T04:55:32.472Z,-23435.81
2023-01-06T04:57:36.493Z,-23437.22
2023-01-06T04:59:39.126Z,-23438.97
2023-01-06T05:01:41.880Z,-23436.13
2023-01-06T05:03:44.557Z,-23433.91
2023-01-06T05:05:47.129Z,-23429.28
2023-01-06T05:07:49.790Z,-23426.59
2023-01-06T05:09:52.443Z,-23430.09
2023-01-06T05:11:56.534Z,-23428.50
2023-01-06T05:14:00.539Z,-23430.72
2023-01-06T05:16:07.428Z,-23429.78
2023-01-06T05:18:10.137Z,-23425.78
2023-01-06T05:20:13.003Z,-23425.97
2023-01-06T05:22:15.600Z,-23427.53
2023-01-06T05:24:18.225Z,-23429.28
2023-01-06T05:26:22.962Z,-23428.50
2023-01-06T05:28:25.612Z,-23428.97
2023-01-06T05:30:29.536Z,-23429.78
2023-01-06T05:32:32.110Z,-23429.44
2023-01-06T05:34:34.749Z,-23434.53
2023-01-06T05:36:37.382Z,-23435.34
2023-01-06T05:38:40.300Z,-23433.28
2023-01-06T05:40:42.897Z,-23434.22
2023-01-06T05:42:45.516Z,-23432.63
2023-01-06T05:44:48.139Z,-23431.19
2023-01-06T05:46:52.231Z,-23432.16
2023-01-06T05:48:54.912Z,-23431.69
2023-01-06T05:51:02.377Z,-23432.31
2023-01-06T05:53:05.126Z,-23433.75
2023-01-06T05:55:09.053Z,-23435.81
2023-01-06T05:57:11.692Z,-23435.81
2023-01-06T05:59:14.479Z,-23436.75
2023-01-06T06:01:18.531Z,-23435.47
2023-01-06T06:03:23.057Z,-23438.97
2023-01-06T06:05:25.770Z,-23438.97
2023-01-06T06:07:28.340Z,-23439.59
2023-01-06T06:09:31.085Z,-23442.94
2023-01-06T06:11:33.823Z,-23443.41
2023-01-06T06:13:37.326Z,-23445.00
2023-01-06T06:15:40.059Z,-23442.00
2023-01-06T06:17:42.895Z,-23444.69
2023-01-06T06:19:47.058Z,-23442.94
2023-01-06T06:21:49.762Z,-23444.38
2023-01-06T06:23:53.908Z,-23445.31
2023-01-06T06:25:56.651Z,-23447.06
2023-01-06T06:27:59.745Z,-23445.81
2023-01-06T06:30:02.522Z,-23445.16
2023-01-06T06:32:05.450Z,-23442.31
2023-01-06T06:34:08.228Z,-23444.38
2023-01-06T06:36:15.754Z,-23439.78
2023-01-06T06:38:18.477Z,-23437.06
2023-01-06T06:40:21.132Z,-23438.50
2023-01-06T06:42:23.824Z,-23438.03
2023-01-06T06:44:26.462Z,-23439.47
2023-01-06T06:46:29.158Z,-23440.56
2023-01-06T06:48:31.951Z,-23441.84
2023-01-06T06:50:34.610Z,-23442.78
2023-01-06T06:52:39.037Z,-23443.41
2023-01-06T06:54:41.616Z,-23443.09
2023-01-06T06:56:44.428Z,-23443.59
2023-01-06T06:58:47.303Z,-23442.78
2023-01-06T07:00:50.251Z,-23440.56
2023-01-06T07:02:53.271Z,-23438.34
2023-01-06T07:04:55.938Z,-23439.28
2023-01-06T07:06:58.724Z,-23437.06
2023-01-06T07:09:03.330Z,-23435.16
2023-01-06T07:11:06.245Z,-23436.28
2023-01-06T07:13:09.319Z,-23436.75
2023-01-06T07:15:12.397Z,-23439.59
2023-01-06T07:17:15.092Z,-23438.34
2023-01-06T07:19:17.901Z,-23439.47
2023-01-06T07:21:20.954Z,-23441.69
2023-01-06T07:23:24.828Z,-23442.47
2023-01-06T07:25:28.931Z,-23446.28
2023-01-06T07:27:31.652Z,-23447.88
2023-01-06T07:29:34.436Z,-23450.72
2023-01-06T07:31:37.117Z,-23452.78
2023-01-06T07:33:39.951Z,-23453.41
2023-01-06T07:35:42.862Z,-23454.38
2023-01-06T07:37:46.504Z,-23456.13
2023-01-06T07:39:49.182Z,-23455.78
2023-01-06T07:41:53.159Z,-23456.28
2023-01-06T07:43:55.917Z,-23457.69
2023-01-06T07:45:58.778Z,-23460.56
2023-01-06T07:48:02.056Z,-23458.97
2023-01-06T07:50:06.340Z,-23457.38
2023-01-06T07:52:09.027Z,-23459.28
2023-01-06T07:54:12.049Z,-23459.13
2023-01-06T07:56:14.804Z,-23460.88
2023-01-06T07:58:19.219Z,-23463.72
2023-01-06T08:00:22.358Z,-23462.47
2023-01-06T08:02:25.392Z,-23464.03
2023-01-06T08:04:28.165Z,-23467.84
2023-01-06T08:06:30.990Z,-23468.50
2023-01-06T08:08:37.036Z,-23467.22
2023-01-06T08:10:41.046Z,-23464.53
2023-01-06T08:12:43.923Z,-23464.03
2023-01-06T08:14:48.047Z,-23463.72
2023-01-06T08:16:50.762Z,-23468.16
2023-01-06T08:18:53.384Z,-23466.56
2023-01-06T08:21:00.978Z,-23465.00
2023-01-06T08:23:03.918Z,-23465.31
2023-01-06T08:25:07.338Z,-23462.78
2023-01-06T08:27:10.153Z,-23463.41
2023-01-06T08:29:12.846Z,-23460.56
2023-01-06T08:31:18.942Z,-23459.13
2023-01-06T08:33:24.021Z,-23458.66
2023-01-06T08:35:26.940Z,-23459.28
2023-01-06T08:37:29.947Z,-23457.53
2023-01-06T08:39:32.931Z,-23455.47
2023-01-06T08:41:35.652Z,-23450.41
2023-01-06T08:43:39.606Z,-23451.50
2023-01-06T08:45:42.352Z,-23454.38
2023-01-06T08:47:47.073Z,-23457.06
2023-01-06T08:49:49.759Z,-23455.47
2023-01-06T08:51:52.446Z,-23459.28
2023-01-06T08:53:55.616Z,-23456.75
2023-01-06T08:55:58.202Z,-23462.78
2023-01-06T08:58:00.955Z,-23466.91
2023-01-06T09:00:05.513Z,-23464.53
2023-01-06T09:02:08.299Z,-23461.81
2023-01-06T09:04:13.619Z,-23463.88
2023-01-06T09:06:17.640Z,-23463.09
2023-01-06T09:08:20.266Z,-23461.50
2023-01-06T09:10:23.331Z,-23463.41
2023-01-06T09:12:25.954Z,-23467.38
2023-01-06T09:14:28.638Z,-23468.16
2023-01-06T09:16:31.385Z,-23467.06
2023-01-06T09:18:34.123Z,-23468.50
2023-01-06T09:20:39.244Z,-23464.38
2023-01-06T09:22:41.878Z,-23466.91
2023-01-06T09:24:44.544Z,-23467.06
2023-01-06T09:26:47.157Z,-23462.13
2023-01-06T09:28:50.052Z,-23461.81
2023-01-06T09:30:52.810Z,-23465.16
2023-01-06T09:32:55.942Z,-23460.56
2023-01-06T09:34:58.612Z,-23458.66
2023-01-06T09:37:02.555Z,-23460.56
2023-01-06T09:39:05.604Z,-23466.91
2023-01-06T09:41:28.013Z,-23469.44
2023-01-06T09:43:41.829Z,-23472.59
2023-01-06T09:45:49.705Z,-23472.75
2023-01-06T09:47:58.623Z,-23470.88
2023-01-06T09:50:08.365Z,-23472.75
2023-01-06T09:52:21.921Z,-23475.47
2023-01-06T09:54:29.193Z,-23471.03
2023-01-06T09:56:32.146Z,-23476.88
2023-01-06T09:58:39.031Z,-23484.34
2023-01-06T10:00:44.320Z,-23491.00
2023-01-06T10:02:47.268Z,-23489.09
2023-01-06T10:04:50.274Z,-23501.13
2023-01-06T10:07:02.313Z,-23493.38
2023-01-06T10:09:21.148Z,-23497.34
2023-01-06T10:11:33.791Z,-23497.66
2023-01-06T10:13:44.471Z,-23495.91
2023-01-06T10:15:53.079Z,-23488.16
2023-01-06T10:18:08.815Z,-23488.47
2023-01-06T10:20:32.653Z,-23491.63
2023-01-06T10:22:47.999Z,-23491.78
2023-01-06T10:25:00.599Z,-23495.59
2023-01-06T10:27:11.399Z,-23496.06
2023-01-06T10:29:17.493Z,-23500.81
2023-01-06T10:31:24.436Z,-23491.00
2023-01-06T10:33:30.550Z,-23480.38
2023-01-06T10:35:33.913Z,-23494.16
2023-01-06T10:37:40.296Z,-23502.88
2023-01-06T10:39:45.587Z,-23492.75
2023-01-06T10:42:16.069Z,-23512.53
2023-01-06T10:44:19.390Z,-23491.94
2023-01-06T10:46:22.017Z,-23495.44
2023-01-06T10:48:28.435Z,-23496.22
2023-01-06T10:50:31.455Z,-23500.81
2023-01-06T10:52:36.816Z,-23502.88
2023-01-06T10:54:41.300Z,-23504.00
2023-01-06T10:56:49.330Z,-23509.22
2023-01-06T10:58:58.158Z,-23516.50
2023-01-06T11:01:02.722Z,-23507.78
2023-01-06T11:03:31.572Z,-23512.84
2023-01-06T11:05:33.701Z,-23503.69
2023-01-06T11:07:36.588Z,-23500.97
2023-01-06T11:09:42.824Z,-23496.53
2023-01-06T11:11:50.307Z,-23493.53
2023-01-06T11:13:57.365Z,-23489.09
2023-01-06T11:16:02.836Z,-23492.75
2023-01-06T11:18:06.435Z,-23497.03
2023-01-06T11:20:27.784Z,-23502.09
2023-01-06T11:22:35.559Z,-23501.78
2023-01-06T11:24:51.131Z,-23499.06
2023-01-06T11:26:55.904Z,-23497.66
2023-01-06T11:29:18.853Z,-23494.97
2023-01-06T11:31:25.808Z,-23495.91
2023-01-06T11:33:30.508Z,-23498.13
2023-01-06T11:35:34.616Z,-23498.75
2023-01-06T11:37:40.062Z,-23493.22
2023-01-06T11:39:45.194Z,-23495.75
2023-01-06T11:41:50.756Z,-23502.09
2023-01-06T11:43:58.002Z,-23504.16
2023-01-06T11:46:07.705Z,-23497.50
2023-01-06T11:48:17.172Z,-23500.34
2023-01-06T11:50:21.361Z,-23500.50
2023-01-06T11:52:27.065Z,-23504.78
2023-01-06T11:54:34.118Z,-23502.72
2023-01-06T11:56:37.474Z,-23503.03
2023-01-06T11:58:55.503Z,-23503.50
2023-01-06T12:01:06.505Z,-23508.44
2023-01-06T12:03:17.871Z,-23500.34
2023-01-06T12:05:28.475Z,-23497.97
2023-01-06T12:07:38.296Z,-23501.63
2023-01-06T12:09:45.405Z,-23508.75
2023-01-06T12:11:50.963Z,-23505.56
2023-01-06T12:14:08.752Z,-23503.69
2023-01-06T12:16:23.760Z,-23504.47
2023-01-06T12:18:31.400Z,-23506.22
2023-01-06T12:20:36.717Z,-23508.09
2023-01-06T12:22:43.870Z,-23509.38
2023-01-06T12:24:49.092Z,-23505.56
2023-01-06T12:26:53.064Z,-23505.41
2023-01-06T12:28:58.273Z,-23514.75
2023-01-06T12:31:07.541Z,-23519.81
2023-01-06T12:33:18.578Z,-23520.63
2023-01-06T12:35:26.146Z,-23508.09
2023-01-06T12:37:33.804Z,-23510.66
2023-01-06T12:39:43.962Z,-23508.59
2023-01-06T12:41:52.659Z,-23506.06
2023-01-06T12:44:00.861Z,-23506.84
2023-01-06T12:46:08.314Z,-23505.72
2023-01-06T12:48:19.741Z,-23507.94
2023-01-06T12:50:34.599Z,-23506.53
2023-01-06T12:52:42.105Z,-23503.84
2023-01-06T12:54:51.393Z,-23506.22
2023-01-06T12:57:07.732Z,-23507.16
2023-01-06T12:59:19.273Z,-23503.50
2023-01-06T13:01:31.472Z,-23503.34
2023-01-06T13:04:00.278Z,-23500.19
2023-01-06T13:06:18.737Z,-23498.44
2023-01-06T13:08:31.314Z,-23500.66
2023-01-06T13:10:38.985Z,-23501.13
2023-01-06T13:12:51.681Z,-23504.00
2023-01-06T13:15:01.293Z,-23503.34
2023-01-06T13:17:09.695Z,-23505.09
2023-01-06T13:19:37.223Z,-23505.91
2023-01-06T13:21:41.561Z,-23504.94
2023-01-06T13:24:06.105Z,-23502.41
2023-01-06T13:26:43.476Z,-23505.25
2023-01-06T13:28:54.734Z,-23507.78
2023-01-06T13:31:40.884Z,-23505.72
2023-01-06T13:34:24.612Z,-23505.56
2023-01-06T13:37:15.125Z,-23498.13
2023-01-06T13:39:20.919Z,-23502.41
2023-01-06T13:41:28.862Z,-23502.41
2023-01-06T13:43:34.237Z,-23505.56
2023-01-06T13:45:40.163Z,-23502.09
2023-01-06T13:47:43.432Z,-23499.56
2023-01-06T13:49:48.165Z,-23499.88
2023-01-06T13:51:51.726Z,-23501.63
2023-01-06T13:53:54.801Z,-23499.25
2023-01-06T13:56:24.674Z,-23500.50
2023-01-06T13:58:38.793Z,-23499.88
2023-01-06T14:00:44.171Z,-23499.72
2023-01-06T14:03:15.675Z,-23504.31
2023-01-06T14:05:56.696Z,-23503.50
2023-01-06T14:08:02.251Z,-23502.72
2023-01-06T14:10:08.260Z,-23503.50
2023-01-06T14:12:16.383Z,-23501.78
2023-01-06T14:14:24.935Z,-23503.34
2023-01-06T14:16:42.042Z,-23503.69
2023-01-06T14:18:51.231Z,-23503.50
2023-01-06T14:21:03.632Z,-23504.00
2023-01-06T14:23:21.247Z,-23504.63
2023-01-06T14:25:25.247Z,-23503.69
2023-01-06T14:28:05.147Z,-23496.38
2023-01-06T14:30:21.250Z,-23486.88
2023-01-06T14:33:13.292Z,-23489.56
2023-01-06T14:35:19.149Z,-23494.16
2023-01-06T14:37:27.633Z,-23492.91
2023-01-06T14:39:34.141Z,-23490.22
2023-01-06T14:41:41.233Z,-23488.31
2023-01-06T14:43:52.787Z,-23486.56
2023-01-06T14:45:55.861Z,-23486.56
2023-01-06T14:48:02.899Z,-23486.88
2023-01-06T14:50:10.589Z,-23488.78
2023-01-06T14:52:17.393Z,-23491.16
2023-01-06T14:54:27.780Z,-23489.41
2023-01-06T14:56:31.681Z,-23484.97
2023-01-06T14:58:36.758Z,-23484.97
2023-01-06T15:00:46.126Z,-23487.84
2023-01-06T15:02:51.305Z,-23491.31
2023-01-06T15:04:57.530Z,-23487.34
2023-01-06T15:07:05.673Z,-23487.50
2023-01-06T15:09:12.855Z,-23488.16
2023-01-06T15:11:26.838Z,-23487.84
2023-01-06T15:13:31.331Z,-23488.47
2023-01-06T15:15:34.800Z,-23490.38
2023-01-06T15:17:37.635Z,-23487.50
2023-01-06T15:19:45.032Z,-23484.97
2023-01-06T15:21:49.744Z,-23484.34
2023-01-06T15:23:55.266Z,-23485.59
2023-01-06T15:25:57.904Z,-23485.13
2023-01-06T15:28:02.018Z,-23483.38
2023-01-06T15:30:05.127Z,-23481.66
2023-01-06T15:32:13.365Z,-23485.44
2023-01-06T15:34:18.747Z,-23480.38
2023-01-06T15:36:23.851Z,-23477.03
2023-01-06T15:38:30.045Z,-23479.25
2023-01-06T15:40:33.182Z,-23479.25
2023-01-06T15:42:36.443Z,-23476.25
2023-01-06T15:44:41.041Z,-23476.09
2023-01-06T15:46:43.718Z,-23478.78
2023-01-06T15:48:48.727Z,-23479.25
2023-01-06T15:50:52.890Z,-23478.78
2023-01-06T15:52:59.813Z,-23473.88
2023-01-06T15:55:04.265Z,-23471.97
2023-01-06T15:57:16.694Z,-23474.19
2023-01-06T15:59:21.297Z,-23471.03
2023-01-06T16:01:25.721Z,-23474.97
2023-01-06T16:03:31.336Z,-23473.09
2023-01-06T16:05:41.087Z,-23470.69
2023-01-06T16:07:46.768Z,-23474.97
2023-01-06T16:09:49.742Z,-23474.34
2023-01-06T16:11:56.489Z,-23469.28
2023-01-06T16:13:59.908Z,-23471.97
2023-01-06T16:16:09.748Z,-23467.22
2023-01-06T16:18:14.718Z,-23465.94
2023-01-06T16:20:24.943Z,-23467.22
2023-01-06T16:22:34.569Z,-23469.13
2023-01-06T16:24:37.281Z,-23467.22
2023-01-06T16:26:45.430Z,-23471.34
2023-01-06T16:28:50.219Z,-23471.03
2023-01-06T16:31:07.942Z,-23467.22
2023-01-06T16:33:38.831Z,-23466.56
2023-01-06T16:35:41.624Z,-23464.53
2023-01-06T16:37:45.468Z,-23463.56
2023-01-06T16:39:48.209Z,-23468.97
2023-01-06T16:42:42.295Z,-23468.00
2023-01-06T16:44:44.831Z,-23470.53
2023-01-06T16:46:47.566Z,-23473.25
2023-01-06T16:48:53.798Z,-23468.16
2023-01-06T16:50:57.607Z,-23465.31
2023-01-06T16:53:12.339Z,-23469.44
2023-01-06T16:55:16.682Z,-23467.84
2023-01-06T16:57:19.341Z,-23468.97
2023-01-06T16:59:22.580Z,-23467.06
2023-01-06T17:01:26.750Z,-23468.50
2023-01-06T17:03:31.494Z,-23466.91
2023-01-06T17:05:37.826Z,-23467.84
2023-01-06T17:07:40.496Z,-23465.00
2023-01-06T17:09:44.054Z,-23465.00
2023-01-06T17:11:47.818Z,-23467.53
2023-01-06T17:13:53.487Z,-23470.06
2023-01-06T17:16:00.316Z,-23469.75
2023-01-06T17:18:02.981Z,-23467.38
2023-01-06T17:20:13.323Z,-23469.13
2023-01-06T17:22:25.516Z,-23464.38
2023-01-06T17:24:31.603Z,-23461.81
2023-01-06T17:26:34.896Z,-23460.56
2023-01-06T17:28:38.916Z,-23459.75
2023-01-06T17:30:41.594Z,-23460.41
2023-01-06T17:32:46.490Z,-23458.97
2023-01-06T17:34:49.721Z,-23460.56
2023-01-06T17:36:53.967Z,-23462.47
2023-01-06T17:38:57.968Z,-23463.88
2023-01-06T17:41:00.626Z,-23459.59
2023-01-06T17:43:07.640Z,-23461.66
2023-01-06T17:45:20.048Z,-23459.91
2023-01-06T17:47:29.583Z,-23459.44
2023-01-06T17:49:35.557Z,-23459.91
2023-01-06T17:51:41.145Z,-23460.72
2023-01-06T17:54:01.427Z,-23459.13
2023-01-06T17:56:07.428Z,-23461.50
2023-01-06T17:58:14.682Z,-23460.25
2023-01-06T18:00:22.756Z,-23457.38
2023-01-06T18:02:39.215Z,-23455.78
2023-01-06T18:04:41.912Z,-23455.63
2023-01-06T18:06:52.611Z,-23454.53
2023-01-06T18:09:01.627Z,-23453.25
2023-01-06T18:11:22.267Z,-23454.22
2023-01-06T18:13:29.355Z,-23455.16
2023-01-06T18:15:34.933Z,-23455.16
2023-01-06T18:17:37.686Z,-23457.38
2023-01-06T18:19:40.365Z,-23455.47
2023-01-06T18:21:45.117Z,-23456.75
2023-01-06T18:23:49.337Z,-23456.13
2023-01-06T18:25:56.042Z,-23457.38
2023-01-06T18:27:59.827Z,-23456.59
2023-01-06T18:30:17.234Z,-23456.75
2023-01-06T18:32:38.013Z,-23457.06
2023-01-06T18:34:44.042Z,-23457.53
2023-01-06T18:36:49.517Z,-23460.88
2023-01-06T18:38:52.368Z,-23460.25
2023-01-06T18:40:55.729Z,-23458.81
2023-01-06T18:43:00.284Z,-23459.28
2023-01-06T18:45:16.151Z,-23459.28
2023-01-06T18:47:24.324Z,-23459.28
2023-01-06T18:49:33.537Z,-23459.91
2023-01-06T18:51:36.184Z,-23461.81
2023-01-06T18:53:43.796Z,-23464.69
2023-01-06T18:55:50.961Z,-23464.84
2023-01-06T18:58:03.326Z,-23468.16
2023-01-06T19:00:28.139Z,-23468.50
2023-01-06T19:02:38.066Z,-23465.31
2023-01-06T19:04:42.452Z,-23465.63
2023-01-06T19:06:46.593Z,-23465.94
2023-01-06T19:08:51.114Z,-23466.09
2023-01-06T19:10:53.743Z,-23466.91
2023-01-06T19:13:00.966Z,-23466.25
2023-01-06T19:15:23.055Z,-23465.00
2023-01-06T19:17:28.673Z,-23464.53
2023-01-06T19:19:37.745Z,-23463.72
2023-01-06T19:21:41.059Z,-23462.63
2023-01-06T19:23:43.812Z,-23462.94
2023-01-06T19:25:48.546Z,-23459.91
2023-01-06T19:27:52.799Z,-23460.09
2023-01-06T19:29:57.657Z,-23462.31
2023-01-06T19:32:04.010Z,-23465.47
2023-01-06T19:34:13.914Z,-23462.47
2023-01-06T19:36:40.276Z,-23459.59
2023-01-06T19:38:44.519Z,-23458.97
2023-01-06T19:40:47.181Z,-23459.44
2023-01-06T19:42:50.063Z,-23459.28
2023-01-06T19:44:55.424Z,-23461.66
2023-01-06T19:47:01.053Z,-23459.13
2023-01-06T19:49:03.707Z,-23460.25
2023-01-06T19:51:23.350Z,-23457.38
2023-01-06T19:53:44.355Z,-23459.59
2023-01-06T19:55:47.206Z,-23457.69
2023-01-06T19:57:52.451Z,-23461.81
2023-01-06T19:59:57.742Z,-23459.44
2023-01-06T20:02:14.153Z,-23464.03
2023-01-06T20:04:20.545Z,-23459.28
2023-01-06T20:06:23.557Z,-23458.03
2023-01-06T20:08:26.273Z,-23458.66
2023-01-06T20:10:29.008Z,-23459.91
2023-01-06T20:12:31.699Z,-23461.50
2023-01-06T20:14:34.393Z,-23461.50
2023-01-06T20:16:37.367Z,-23456.13
2023-01-06T20:18:41.381Z,-23456.44
2023-01-06T20:20:44.215Z,-23455.78
2023-01-06T20:22:47.002Z,-23458.66
2023-01-06T20:24:49.597Z,-23457.38
2023-01-06T20:26:52.188Z,-23455.97
2023-01-06T20:28:54.874Z,-23458.03
2023-01-06T20:30:57.526Z,-23454.06
2023-01-06T20:33:00.192Z,-23455.00
2023-01-06T20:35:04.373Z,-23455.16
2023-01-06T20:37:07.003Z,-23454.53
2023-01-06T20:39:12.051Z,-23458.97
2023-01-06T20:41:17.345Z,-23455.78
2023-01-06T20:43:20.096Z,-23456.28
2023-01-06T20:45:22.909Z,-23456.59
2023-01-06T20:47:25.738Z,-23455.78
2023-01-06T20:49:28.407Z,-23455.97
2023-01-06T20:51:32.425Z,-23458.97
2023-01-06T20:53:35.541Z,-23458.03
2023-01-06T20:55:38.201Z,-23455.47
2023-01-06T20:57:40.889Z,-23458.34
2023-01-06T20:59:43.529Z,-23457.53
2023-01-06T21:01:46.404Z,-23456.44
2023-01-06T21:03:49.151Z,-23457.38
2023-01-06T21:05:51.826Z,-23457.06
2023-01-06T21:07:55.888Z,-23456.44
2023-01-06T21:09:58.523Z,-23454.22
2023-01-06T21:12:01.213Z,-23458.03
2023-01-06T21:14:03.861Z,-23456.28
2023-01-06T21:16:07.029Z,-23455.78
2023-01-06T21:18:09.736Z,-23456.44
2023-01-06T21:20:13.068Z,-23457.69
2023-01-06T21:22:15.738Z,-23456.13
2023-01-06T21:24:19.760Z,-23454.84
2023-01-06T21:26:22.459Z,-23454.84
2023-01-06T21:28:25.140Z,-23455.78
2023-01-06T21:30:28.448Z,-23456.28
2023-01-06T21:32:31.187Z,-23456.75
2023-01-06T21:34:33.868Z,-23457.06
2023-01-06T21:36:36.583Z,-23456.75
2023-01-06T21:38:39.201Z,-23456.75
2023-01-06T21:40:43.184Z,-23458.81
2023-01-06T21:43:03.712Z,-23459.59
2023-01-06T21:45:07.908Z,-23456.44
2023-01-06T21:47:11.248Z,-23455.47
2023-01-06T21:49:13.973Z,-23457.69
2023-01-06T21:51:16.661Z,-23455.78
2023-01-06T21:53:21.200Z,-23458.97
2023-01-06T21:55:24.408Z,-23455.00
2023-01-06T21:57:29.180Z,-23457.69
2023-01-06T21:59:32.673Z,-23457.84
2023-01-06T22:01:35.466Z,-23456.28
2023-01-06T22:03:38.233Z,-23458.66
2023-01-06T22:05:41.228Z,-23458.97
2023-01-06T22:07:47.652Z,-23458.03
2023-01-06T22:09:50.582Z,-23455.00
2023-01-06T22:11:54.433Z,-23455.00
2023-01-06T22:13:58.885Z,-23454.84
2023-01-06T22:16:01.618Z,-23455.00
2023-01-06T22:18:04.728Z,-23454.22
2023-01-06T22:20:08.628Z,-23456.75
2023-01-06T22:22:11.322Z,-23452.47
2023-01-06T22:24:16.043Z,-23453.25
2023-01-06T22:26:18.749Z,-23454.22
2023-01-06T22:28:21.520Z,-23452.94
2023-01-06T22:30:25.666Z,-23453.25
2023-01-06T22:32:28.475Z,-23450.72
2023-01-06T22:34:31.458Z,-23448.50
2023-01-06T22:36:34.953Z,-23448.19
2023-01-06T22:38:37.866Z,-23450.25
2023-01-06T22:40:40.507Z,-23448.81
2023-01-06T22:42:43.633Z,-23452.47
2023-01-06T22:44:46.284Z,-23450.88
2023-01-06T22:46:50.328Z,-23451.50
2023-01-06T22:48:52.906Z,-23450.41
2023-01-06T22:50:59.065Z,-23450.88
2023-01-06T22:53:01.712Z,-23452.16
2023-01-06T22:55:05.094Z,-23452.47
2023-01-06T22:57:07.796Z,-23450.72
2023-01-06T22:59:10.760Z,-23452.94
2023-01-06T23:01:13.523Z,-23454.22
2023-01-06T23:03:17.843Z,-23453.91
2023-01-06T23:05:20.458Z,-23455.16
2023-01-06T23:07:23.175Z,-23454.84
2023-01-06T23:09:25.806Z,-23457.06
2023-01-06T23:11:29.798Z,-23457.53
2023-01-06T23:13:33.083Z,-23457.38
2023-01-06T23:15:35.796Z,-23457.38
2023-01-06T23:17:38.737Z,-23457.38
2023-01-06T23:19:42.744Z,-23455.16
2023-01-06T23:21:45.645Z,-23458.50
2023-01-06T23:23:48.829Z,-23455.97
2023-01-06T23:25:51.429Z,-23455.31
2023-01-06T23:27:54.190Z,-23459.44
2023-01-06T23:29:56.881Z,-23455.78
2023-01-06T23:31:59.616Z,-23458.19
2023-01-06T23:34:05.256Z,-23456.75
2023-01-06T23:36:11.384Z,-23455.47
2023-01-06T23:38:14.066Z,-23453.25
2023-01-06T23:40:16.745Z,-23451.84
2023-01-06T23:42:19.412Z,-23449.28
2023-01-06T23:44:22.209Z,-23448.34
2023-01-06T23:46:27.073Z,-23450.09
2023-01-06T23:48:31.073Z,-23449.13
2023-01-06T23:50:33.858Z,-23449.13
2023-01-06T23:52:37.806Z,-23452.31
2023-01-06T23:54:40.471Z,-23451.19
2023-01-06T23:56:43.211Z,-23448.97
2023-01-06T23:58:48.033Z,-23448.19
